RA00257 UUML-UUMD
Flight info
| Callsign | RA00257 |
|---|---|
| Flight time | 0h 11m |
| Altitude | 2000 |
| Route | ALONG HIGHWAY E30/ALONG RIVER OKA |
| Aircraft | C152/L-S/L |
Departure
| Time | 2026-04-29 12:25 |
|---|---|
| Airport | Severka Airfield (UUML) |
Arrival
| Time | 2026-04-29 12:36 |
|---|---|
| Airport | Selnikovo Airfield (UUMD) |
| Time | Latitude | Longitude | Altitude | Speed | Heading |
|---|---|---|---|---|---|
| 2026-04-29 12:15 | 55.20659 | 38.67636 | 426 ft | 0 kts | 180° |
| 2026-04-29 12:19 | 55.20645 | 38.67641 | 421 ft | 8 kts | 152° |
| 2026-04-29 12:19 | 55.20622 | 38.67668 | 426 ft | 0 kts | 156° |
| 2026-04-29 12:20 | 55.20609 | 38.67678 | 426 ft | 0 kts | 154° |
| 2026-04-29 12:21 | 55.20583 | 38.67714 | 424 ft | 11 kts | 97° |
| 2026-04-29 12:21 | 55.20638 | 38.67865 | 428 ft | 20 kts | 56° |
| 2026-04-29 12:21 | 55.20728 | 38.68115 | 426 ft | 26 kts | 56° |
| 2026-04-29 12:22 | 55.20798 | 38.68311 | 424 ft | 8 kts | 79° |
| 2026-04-29 12:22 | 55.20805 | 38.68309 | 424 ft | 4 kts | 221° |
| 2026-04-29 12:22 | 55.20765 | 38.68210 | 420 ft | 22 kts | 237° |
| 2026-04-29 12:22 | 55.20609 | 38.67780 | 431 ft | 59 kts | 238° |
| 2026-04-29 12:23 | 55.20387 | 38.67129 | 563 ft | 64 kts | 237° |
| 2026-04-29 12:23 | 55.20138 | 38.66443 | 678 ft | 73 kts | 226° |
| 2026-04-29 12:23 | 55.19643 | 38.66456 | 751 ft | 85 kts | 160° |
| 2026-04-29 12:23 | 55.19060 | 38.66849 | 812 ft | 94 kts | 163° |
| 2026-04-29 12:24 | 55.18389 | 38.66954 | 834 ft | 101 kts | 188° |
| 2026-04-29 12:24 | 55.17692 | 38.66745 | 856 ft | 103 kts | 188° |
| 2026-04-29 12:24 | 55.17001 | 38.67023 | 864 ft | 107 kts | 153° |
| 2026-04-29 12:24 | 55.16379 | 38.67725 | 901 ft | 107 kts | 144° |
| 2026-04-29 12:25 | 55.15824 | 38.68572 | 971 ft | 104 kts | 136° |
| 2026-04-29 12:25 | 55.15412 | 38.69607 | 1035 ft | 105 kts | 118° |
| 2026-04-29 12:25 | 55.14800 | 38.72063 | 922 ft | 111 kts | 114° |
| 2026-04-29 12:26 | 55.14475 | 38.73287 | 900 ft | 111 kts | 116° |
| 2026-04-29 12:26 | 55.14176 | 38.74522 | 900 ft | 109 kts | 110° |
| 2026-04-29 12:26 | 55.13906 | 38.75749 | 947 ft | 107 kts | 115° |
| 2026-04-29 12:26 | 55.13532 | 38.76847 | 1004 ft | 104 kts | 126° |
| 2026-04-29 12:27 | 55.13120 | 38.77865 | 1081 ft | 104 kts | 126° |
| 2026-04-29 12:27 | 55.12725 | 38.78945 | 1102 ft | 108 kts | 121° |
| 2026-04-29 12:27 | 55.12394 | 38.80145 | 1103 ft | 110 kts | 112° |
| 2026-04-29 12:27 | 55.12141 | 38.81413 | 1129 ft | 109 kts | 109° |
| 2026-04-29 12:28 | 55.11908 | 38.82683 | 1122 ft | 111 kts | 109° |
| 2026-04-29 12:28 | 55.11662 | 38.83959 | 1139 ft | 110 kts | 109° |
| 2026-04-29 12:28 | 55.11406 | 38.85247 | 1082 ft | 114 kts | 110° |
| 2026-04-29 12:28 | 55.11150 | 38.86553 | 1049 ft | 114 kts | 109° |
| 2026-04-29 12:29 | 55.10902 | 38.87861 | 1045 ft | 113 kts | 110° |
| 2026-04-29 12:29 | 55.10599 | 38.89119 | 1047 ft | 112 kts | 121° |
| 2026-04-29 12:29 | 55.10071 | 38.90071 | 1048 ft | 109 kts | 145° |
| 2026-04-29 12:29 | 55.09437 | 38.90850 | 990 ft | 112 kts | 143° |
| 2026-04-29 12:30 | 55.08867 | 38.91727 | 1004 ft | 109 kts | 131° |
| 2026-04-29 12:30 | 55.08476 | 38.92898 | 924 ft | 114 kts | 114° |
| 2026-04-29 12:30 | 55.08231 | 38.94188 | 931 ft | 110 kts | 107° |
| 2026-04-29 12:30 | 55.08145 | 38.95453 | 997 ft | 106 kts | 88° |
| 2026-04-29 12:31 | 55.08258 | 38.96741 | 1010 ft | 108 kts | 77° |
| 2026-04-29 12:31 | 55.08483 | 38.97988 | 1046 ft | 107 kts | 72° |
| 2026-04-29 12:31 | 55.08725 | 38.99222 | 1061 ft | 108 kts | 70° |
| 2026-04-29 12:31 | 55.08998 | 39.00465 | 1044 ft | 111 kts | 68° |
| 2026-04-29 12:32 | 55.09299 | 39.01689 | 1064 ft | 108 kts | 66° |
| 2026-04-29 12:32 | 55.09592 | 39.02907 | 1065 ft | 110 kts | 69° |
| 2026-04-29 12:32 | 55.09837 | 39.04151 | 1101 ft | 108 kts | 74° |
| 2026-04-29 12:32 | 55.10022 | 39.05405 | 1140 ft | 107 kts | 76° |
| 2026-04-29 12:33 | 55.10202 | 39.06675 | 1178 ft | 107 kts | 76° |
| 2026-04-29 12:33 | 55.10394 | 39.07943 | 1247 ft | 108 kts | 75° |
| 2026-04-29 12:33 | 55.10599 | 39.09205 | 1257 ft | 109 kts | 73° |
| 2026-04-29 12:33 | 55.10834 | 39.10459 | 1263 ft | 110 kts | 71° |
| 2026-04-29 12:34 | 55.11077 | 39.11728 | 1271 ft | 112 kts | 72° |
| 2026-04-29 12:34 | 55.11317 | 39.13049 | 1112 ft | 105 kts | 74° |
| 2026-04-29 12:34 | 55.11475 | 39.14057 | 1032 ft | 75 kts | 88° |
| 2026-04-29 12:34 | 55.11262 | 39.14775 | 974 ft | 66 kts | 140° |
| 2026-04-29 12:35 | 55.10884 | 39.14877 | 927 ft | 61 kts | 233° |
| 2026-04-29 12:35 | 55.11091 | 39.14314 | 823 ft | 70 kts | 334° |
| 2026-04-29 12:35 | 55.11560 | 39.13992 | 611 ft | 76 kts | 335° |
| 2026-04-29 12:35 | 55.12054 | 39.13900 | 476 ft | 71 kts | 18° |
| 2026-04-29 12:36 | 55.12491 | 39.14223 | 387 ft | 66 kts | 19° |
| 2026-04-29 12:36 | 55.12901 | 39.14517 | 346 ft | 60 kts | 19° |
| 2026-04-29 12:36 | 55.13190 | 39.14720 | 363 ft | 19 kts | 21° |
| 2026-04-29 12:36 | 55.13292 | 39.14782 | 367 ft | 13 kts | 7° |
| 2026-04-29 12:37 | 55.13351 | 39.14772 | 373 ft | 1 kts | 359° |
| 2026-04-29 12:37 | 55.13362 | 39.14772 | 375 ft | 6 kts | 359° |
| 2026-04-29 12:37 | 55.13374 | 39.14786 | 376 ft | 0 kts | 105° |